Time;durP1;ratioP1;P1;durP2;ratioP2;P2;SDS_P1;SDS_P2;PMS_P1;PMS_P2;Temp;Humidity;BMP_temperature;BMP_pressure;BME280_temperature;BME280_humidity;BME280_pressure;Samples;Min_cycle;Max_cycle;Signal;HPM_P1;HPM_P2
2023/03/21 00:00:30;;;;;;;0.10;0.10;;;10.50;99.90;;;;;;5036423;28;20201;-86
2023/03/21 00:02:56;;;;;;;0.10;0.10;;;10.50;99.90;;;;;;5035979;28;20303;-86
2023/03/21 00:05:22;;;;;;;0.10;0.10;;;10.50;99.90;;;;;;5018116;28;20196;-85
2023/03/21 00:07:47;;;;;;;0.10;0.10;;;10.60;99.90;;;;;;5019509;28;20213;-84
2023/03/21 00:10:13;;;;;;;0.10;0.10;;;10.60;99.90;;;;;;5019165;28;20212;-85
2023/03/21 00:12:39;;;;;;;0.10;0.10;;;10.60;99.90;;;;;;5017478;28;20305;-86
2023/03/21 00:15:06;;;;;;;0.10;0.10;;;10.60;99.90;;;;;;5020353;28;20195;-85
2023/03/21 00:17:32;;;;;;;0.10;0.10;;;10.60;99.90;;;;;;5036394;28;20205;-85
2023/03/21 00:20:05;;;;;;;0.10;0.10;;;10.70;99.90;;;;;;5015161;28;20290;-85
2023/03/21 00:22:33;;;;;;;0.10;0.10;;;10.70;99.90;;;;;;5034206;28;21825;-86
2023/03/21 00:24:59;;;;;;;0.10;0.10;;;10.60;99.90;;;;;;5016423;28;20183;-86
2023/03/21 00:27:24;;;;;;;0.10;0.10;;;10.60;99.90;;;;;;5034792;28;20185;-85
2023/03/21 00:29:50;;;;;;;0.10;0.10;;;10.60;99.90;;;;;;5033751;28;20214;-84
2023/03/21 00:32:16;;;;;;;0.10;0.10;;;10.50;99.90;;;;;;5016564;28;20825;-85
2023/03/21 00:34:43;;;;;;;0.10;0.10;;;10.50;99.90;;;;;;5017825;28;20311;-84
2023/03/21 00:37:11;;;;;;;0.10;0.10;;;10.50;99.90;;;;;;5036209;28;20210;-86
2023/03/21 00:39:37;;;;;;;0.10;0.10;;;10.30;99.90;;;;;;5034845;28;20210;-86
2023/03/21 00:42:03;;;;;;;0.10;0.10;;;10.20;99.90;;;;;;5017414;28;20320;-84
2023/03/21 00:44:28;;;;;;;0.10;0.10;;;10.00;99.90;;;;;;5018364;28;20716;-85
2023/03/21 00:46:54;;;;;;;0.10;0.10;;;10.10;99.90;;;;;;5034686;28;20232;-85
2023/03/21 00:49:20;;;;;;;0.10;0.10;;;10.10;99.90;;;;;;5035974;28;20210;-87
2023/03/21 00:51:50;;;;;;;0.10;0.10;;;9.90;99.90;;;;;;5014139;28;20217;-85
2023/03/21 00:54:16;;;;;;;0.10;0.10;;;10.00;99.90;;;;;;5017534;28;20273;-85
2023/03/21 00:56:42;;;;;;;0.10;0.10;;;10.10;99.90;;;;;;5017734;28;20691;-85
2023/03/21 00:59:07;;;;;;;0.10;0.10;;;10.20;99.90;;;;;;5017342;28;20214;-86
2023/03/21 01:01:33;;;;;;;0.10;0.10;;;10.30;99.90;;;;;;5015156;28;20189;-85
2023/03/21 01:04:04;;;;;;;0.10;0.10;;;10.40;99.90;;;;;;5037073;28;20191;-86
2023/03/21 01:06:31;;;;;;;0.10;0.10;;;10.30;99.90;;;;;;5023041;28;20342;-85
2023/03/21 01:08:57;;;;;;;0.10;0.10;;;10.40;99.90;;;;;;5033916;28;20195;-84
2023/03/21 01:11:26;;;;;;;0.10;0.10;;;10.40;99.90;;;;;;5016394;28;20209;-86
2023/03/21 01:13:52;;;;;;;0.10;0.10;;;10.40;99.90;;;;;;5018058;28;20182;-86
2023/03/21 01:16:18;;;;;;;0.10;0.10;;;10.30;99.90;;;;;;5017238;28;20213;-86
2023/03/21 01:18:44;;;;;;;0.10;0.10;;;10.00;99.90;;;;;;5034849;28;20182;-86
2023/03/21 01:21:12;;;;;;;0.10;0.10;;;9.90;99.90;;;;;;5017231;28;20205;-85
2023/03/21 01:23:40;;;;;;;0.10;0.10;;;9.80;99.90;;;;;;5034550;28;20186;-85
2023/03/21 01:26:06;;;;;;;0.10;0.10;;;9.60;99.90;;;;;;5035072;28;20644;-84
2023/03/21 01:28:33;;;;;;;0.00;0.00;;;9.50;99.90;;;;;;5034745;28;20340;-85
2023/03/21 01:31:01;;;;;;;0.10;0.10;;;9.50;99.90;;;;;;5034416;28;20224;-86
2023/03/21 01:33:28;;;;;;;0.10;0.10;;;9.60;99.90;;;;;;5035177;28;20187;-86
2023/03/21 01:35:53;;;;;;;0.10;0.10;;;9.70;99.90;;;;;;5020474;28;20577;-86
2023/03/21 01:38:19;;;;;;;0.10;0.10;;;9.70;99.90;;;;;;5022538;28;20178;-87
2023/03/21 01:40:47;;;;;;;0.10;0.10;;;9.60;99.90;;;;;;5020675;28;20206;-87
2023/03/21 01:43:29;;;;;;;0.10;0.10;;;9.60;99.90;;;;;;5036242;28;20291;-86
2023/03/21 01:46:21;;;;;;;0.10;0.10;;;9.60;99.90;;;;;;5036063;28;20701;-86
2023/03/21 01:48:53;;;;;;;0.10;0.10;;;9.50;99.90;;;;;;5016891;28;20253;-87
2023/03/21 01:51:20;;;;;;;0.10;0.10;;;9.50;99.90;;;;;;5019075;28;20245;-87
2023/03/21 01:53:47;;;;;;;0.10;0.10;;;9.50;99.90;;;;;;5018716;28;20189;-86
2023/03/21 01:56:25;;;;;;;0.10;0.10;;;9.50;99.90;;;;;;5034612;28;20224;-87
2023/03/21 01:58:54;;;;;;;0.10;0.10;;;9.40;99.90;;;;;;5018012;28;20183;-87
2023/03/21 02:01:21;;;;;;;0.10;0.10;;;9.50;99.90;;;;;;5035267;28;20209;-87
2023/03/21 02:03:49;;;;;;;0.10;0.10;;;9.10;99.90;;;;;;5018431;28;20553;-86
2023/03/21 02:06:31;;;;;;;0.10;0.10;;;8.80;99.90;;;;;;5033851;28;20182;-87
2023/03/21 02:09:03;;;;;;;0.10;0.10;;;8.80;99.90;;;;;;5034655;28;20186;-87
2023/03/21 02:11:31;;;;;;;0.10;0.10;;;8.90;99.90;;;;;;5017776;28;20269;-87
2023/03/21 02:13:56;;;;;;;0.10;0.10;;;8.90;99.90;;;;;;5033353;28;20658;-85
2023/03/21 02:16:28;;;;;;;0.10;0.10;;;9.00;99.90;;;;;;5016335;28;20209;-84
2023/03/21 02:18:59;;;;;;;0.10;0.10;;;9.00;99.90;;;;;;5018164;28;20182;-83
2023/03/21 02:21:52;;;;;;;0.10;0.10;;;9.00;99.90;;;;;;5017749;28;20205;-84
2023/03/21 02:24:44;;;;;;;0.10;0.10;;;9.10;99.90;;;;;;5017484;28;20175;-83
2023/03/21 02:27:20;;;;;;;0.10;0.10;;;9.10;99.90;;;;;;5016949;28;20193;-86
2023/03/21 02:30:11;;;;;;;0.10;0.10;;;9.20;99.90;;;;;;5018760;28;20285;-86
2023/03/21 02:32:39;;;;;;;0.10;0.10;;;9.10;99.90;;;;;;5017684;28;20208;-85
2023/03/21 02:35:18;;;;;;;0.10;0.10;;;9.20;99.90;;;;;;5034665;28;20182;-86
2023/03/21 02:38:17;;;;;;;0.03;0.03;;;9.40;99.90;;;;;;5035635;28;20220;-86
2023/03/21 02:40:52;;;;;;;0.10;0.10;;;9.50;99.90;;;;;;5035175;28;21249;-86
2023/03/21 02:43:30;;;;;;;0.10;0.10;;;9.50;99.90;;;;;;5037056;28;20178;-85
2023/03/21 02:46:04;;;;;;;0.10;0.10;;;9.60;99.90;;;;;;5021485;28;20182;-87
2023/03/21 02:48:50;;;;;;;0.10;0.10;;;9.40;99.90;;;;;;5022878;28;20636;-86
2023/03/21 02:51:20;;;;;;;0.00;0.00;;;9.40;99.90;;;;;;5037167;28;20221;-85
2023/03/21 02:53:51;;;;;;;0.10;0.10;;;9.40;99.90;;;;;;5017816;28;20300;-87
2023/03/21 02:56:19;;;;;;;0.10;0.10;;;9.20;99.90;;;;;;5019715;28;20274;-86
2023/03/21 02:58:47;;;;;;;0.03;0.03;;;9.10;99.90;;;;;;5020109;28;20217;-87
2023/03/21 03:01:12;;;;;;;0.10;0.10;;;8.90;99.90;;;;;;5021452;28;20213;-86
2023/03/21 03:03:38;;;;;;;0.10;0.10;;;8.70;99.90;;;;;;5020569;28;20194;-87
2023/03/21 03:06:15;;;;;;;0.10;0.10;;;8.60;99.90;;;;;;5036812;28;20216;-86
2023/03/21 03:09:11;;;;;;;0.10;0.10;;;8.60;99.90;;;;;;5018379;28;20213;-87
2023/03/21 03:11:40;;;;;;;0.10;0.10;;;8.50;99.90;;;;;;4995989;28;20206;-87
2023/03/21 03:14:15;;;;;;;0.10;0.10;;;8.50;99.90;;;;;;5035644;28;20245;-86
2023/03/21 03:17:01;;;;;;;0.10;0.10;;;8.50;99.90;;;;;;5016407;28;20886;-86
2023/03/21 03:19:30;;;;;;;0.10;0.10;;;8.50;99.90;;;;;;5019632;28;20289;-87
2023/03/21 03:22:02;;;;;;;0.10;0.10;;;8.40;99.90;;;;;;5034957;28;20192;-86
2023/03/21 03:24:54;;;;;;;0.00;0.00;;;8.40;99.90;;;;;;5020576;28;20182;-85
2023/03/21 03:27:31;;;;;;;0.10;0.10;;;8.40;99.90;;;;;;5037928;28;20230;-85
2023/03/21 03:29:59;;;;;;;0.10;0.10;;;8.40;99.90;;;;;;5039318;28;20692;-84
2023/03/21 03:32:36;;;;;;;0.10;0.10;;;8.40;99.90;;;;;;5020247;28;20195;-85
2023/03/21 03:35:03;;;;;;;0.10;0.10;;;8.40;99.90;;;;;;5020504;28;20811;-85
2023/03/21 03:37:33;;;;;;;0.00;0.00;;;8.50;99.90;;;;;;5021525;28;20563;-86
2023/03/21 03:40:04;;;;;;;0.10;0.10;;;8.50;99.90;;;;;;5021370;28;20209;-86
2023/03/21 03:42:34;;;;;;;0.10;0.10;;;8.50;99.90;;;;;;5023835;28;20176;-85
2023/03/21 03:45:02;;;;;;;0.10;0.10;;;8.50;99.90;;;;;;5022344;28;20190;-85
2023/03/21 03:47:51;;;;;;;0.10;0.10;;;8.80;99.90;;;;;;5024048;28;20286;-84
2023/03/21 03:50:28;;;;;;;0.10;0.10;;;8.80;99.90;;;;;;5020574;28;21554;-86
2023/03/21 03:53:02;;;;;;;0.10;0.10;;;8.90;99.90;;;;;;5026789;28;20201;-86
2023/03/21 03:55:33;;;;;;;0.10;0.10;;;9.10;99.90;;;;;;5019214;28;20613;-85
2023/03/21 03:57:59;;;;;;;0.00;0.00;;;9.10;99.90;;;;;;5022811;28;20256;-86
2023/03/21 04:00:26;;;;;;;0.10;0.10;;;8.90;99.90;;;;;;5038140;28;20209;-86
2023/03/21 04:02:52;;;;;;;0.10;0.10;;;8.70;99.90;;;;;;5039037;28;20217;-84
2023/03/21 04:05:20;;;;;;;0.10;0.10;;;8.70;99.90;;;;;;5038709;28;20208;-85
2023/03/21 04:07:47;;;;;;;0.10;0.10;;;8.70;99.90;;;;;;5038171;28;20181;-87
2023/03/21 04:10:13;;;;;;;0.10;0.10;;;8.80;99.90;;;;;;5038134;28;20202;-85
2023/03/21 04:12:39;;;;;;;0.10;0.10;;;9.00;99.90;;;;;;5020491;28;20178;-86
2023/03/21 04:15:05;;;;;;;0.10;0.10;;;9.20;99.90;;;;;;5023622;28;20219;-86
2023/03/21 04:17:31;;;;;;;0.10;0.10;;;9.30;99.90;;;;;;5019109;28;20267;-87
2023/03/21 04:19:57;;;;;;;0.10;0.10;;;9.40;99.90;;;;;;5036575;28;20213;-86
2023/03/21 04:22:23;;;;;;;0.10;0.10;;;9.60;99.90;;;;;;5036892;28;20178;-86
2023/03/21 04:24:49;;;;;;;0.10;0.10;;;9.60;99.90;;;;;;5036412;28;20929;-87
2023/03/21 04:27:14;;;;;;;0.10;0.10;;;9.70;99.90;;;;;;5020060;28;20232;-86
2023/03/21 04:29:40;;;;;;;0.10;0.10;;;9.70;99.90;;;;;;5036107;28;20210;-86
2023/03/21 04:32:14;;;;;;;0.10;0.10;;;9.70;99.90;;;;;;5037189;28;20185;-85
2023/03/21 04:34:42;;;;;;;0.10;0.10;;;9.70;99.90;;;;;;5042388;28;20185;-85
2023/03/21 04:37:10;;;;;;;0.10;0.10;;;9.70;99.90;;;;;;5044820;28;20217;-86
2023/03/21 04:39:37;;;;;;;0.10;0.10;;;9.70;99.90;;;;;;5016837;28;20730;-85
2023/03/21 04:42:03;;;;;;;0.10;0.10;;;9.70;99.90;;;;;;5017360;28;20182;-85
2023/03/21 04:44:29;;;;;;;0.10;0.10;;;9.70;99.90;;;;;;5019071;28;20304;-83
2023/03/21 04:46:54;;;;;;;0.10;0.10;;;9.80;99.90;;;;;;5018991;28;20202;-84
2023/03/21 04:49:20;;;;;;;0.10;0.10;;;9.80;99.90;;;;;;5037662;28;20209;-86
2023/03/21 04:51:46;;;;;;;0.10;0.10;;;9.80;99.90;;;;;;5036891;28;20648;-85
2023/03/21 04:54:12;;;;;;;0.10;0.10;;;9.50;99.90;;;;;;5018189;28;20194;-86
2023/03/21 04:56:38;;;;;;;0.10;0.10;;;9.20;99.90;;;;;;5018499;28;20214;-85
2023/03/21 04:59:12;;;;;;;0.10;0.10;;;9.10;99.90;;;;;;5018429;28;21165;-85
2023/03/21 05:01:40;;;;;;;0.10;0.10;;;9.40;99.90;;;;;;5019203;28;20193;-85
2023/03/21 05:04:06;;;;;;;0.10;0.10;;;9.60;99.90;;;;;;5018643;28;20178;-86
2023/03/21 05:06:32;;;;;;;0.10;0.10;;;9.50;99.90;;;;;;5017870;28;20186;-84
2023/03/21 05:09:04;;;;;;;0.10;0.10;;;9.40;99.90;;;;;;5034337;28;20185;-85
2023/03/21 05:11:30;;;;;;;0.10;0.10;;;9.30;99.90;;;;;;5037501;28;20597;-85
2023/03/21 05:13:57;;;;;;;0.10;0.10;;;9.10;99.90;;;;;;5027272;28;20197;-86
2023/03/21 05:16:25;;;;;;;0.10;0.10;;;9.10;99.90;;;;;;5036930;28;20304;-85
2023/03/21 05:18:53;;;;;;;0.10;0.10;;;9.20;99.90;;;;;;5035222;28;20198;-86
2023/03/21 05:21:20;;;;;;;0.10;0.10;;;9.40;99.90;;;;;;5034604;28;20182;-85
2023/03/21 05:23:52;;;;;;;0.07;0.07;;;9.20;99.90;;;;;;5034734;28;20274;-86
2023/03/21 05:26:19;;;;;;;0.10;0.10;;;9.10;99.90;;;;;;5037943;28;20206;-86
2023/03/21 05:28:46;;;;;;;0.10;0.10;;;8.90;99.90;;;;;;5033861;28;20186;-85
2023/03/21 05:31:16;;;;;;;0.10;0.10;;;8.80;99.90;;;;;;5019759;28;20581;-87
2023/03/21 05:33:45;;;;;;;0.10;0.10;;;9.00;99.90;;;;;;5035725;28;20223;-87
2023/03/21 05:36:12;;;;;;;0.10;0.10;;;9.10;99.90;;;;;;5017650;28;20208;-84
2023/03/21 05:38:41;;;;;;;0.10;0.10;;;9.00;99.90;;;;;;5017502;28;20181;-86
2023/03/21 05:41:07;;;;;;;0.10;0.10;;;9.20;99.90;;;;;;5021457;28;20228;-85
2023/03/21 05:43:33;;;;;;;0.10;0.10;;;9.50;99.90;;;;;;5040673;28;20260;-84
2023/03/21 05:45:58;;;;;;;0.10;0.10;;;9.60;99.90;;;;;;5025887;28;20200;-85
2023/03/21 05:48:24;;;;;;;0.10;0.10;;;9.70;99.90;;;;;;5026360;28;20193;-86
2023/03/21 05:50:50;;;;;;;0.00;0.00;;;9.60;99.90;;;;;;5023581;28;20213;-85
2023/03/21 05:53:15;;;;;;;0.10;0.10;;;9.50;99.90;;;;;;5014542;28;20194;-86
2023/03/21 05:55:43;;;;;;;0.10;0.10;;;9.40;99.90;;;;;;5015812;28;20200;-87
2023/03/21 05:58:08;;;;;;;0.10;0.10;;;9.40;99.90;;;;;;5016371;28;20190;-87
2023/03/21 06:00:34;;;;;;;0.10;0.10;;;9.40;99.90;;;;;;5017428;28;20210;-86
2023/03/21 06:02:59;;;;;;;0.03;0.03;;;9.40;99.90;;;;;;5034561;28;20190;-86
2023/03/21 06:05:25;;;;;;;0.10;0.10;;;9.40;99.90;;;;;;5017121;28;20245;-87
2023/03/21 06:07:51;;;;;;;0.10;0.10;;;9.30;99.90;;;;;;5020020;28;20217;-86
2023/03/21 06:10:17;;;;;;;0.10;0.10;;;9.30;99.90;;;;;;5036317;28;20237;-86
2023/03/21 06:12:42;;;;;;;0.10;0.10;;;9.40;99.90;;;;;;5023872;28;20210;-83
2023/03/21 06:15:09;;;;;;;0.10;0.10;;;9.30;99.90;;;;;;5022034;28;20185;-83
2023/03/21 06:17:34;;;;;;;0.10;0.10;;;9.30;99.90;;;;;;5015887;28;20393;-83
2023/03/21 06:20:00;;;;;;;0.10;0.10;;;9.40;99.90;;;;;;5020011;28;20240;-84
2023/03/21 06:22:26;;;;;;;0.10;0.10;;;9.40;99.90;;;;;;5034973;28;20189;-83
2023/03/21 06:24:52;;;;;;;0.10;0.10;;;9.50;99.90;;;;;;5017647;28;20189;-83
2023/03/21 06:27:18;;;;;;;0.10;0.10;;;9.40;99.90;;;;;;5034032;28;20687;-83
2023/03/21 06:29:45;;;;;;;0.10;0.10;;;9.50;99.90;;;;;;5040450;28;20847;-83
2023/03/21 06:32:11;;;;;;;0.10;0.10;;;9.60;99.90;;;;;;5040104;28;20193;-83
2023/03/21 06:34:36;;;;;;;0.10;0.10;;;9.70;99.90;;;;;;5039995;28;20189;-82
2023/03/21 06:37:02;;;;;;;0.10;0.10;;;9.80;99.90;;;;;;5021276;28;20257;-83
2023/03/21 06:39:30;;;;;;;0.10;0.10;;;9.90;99.90;;;;;;5038386;28;20205;-83
2023/03/21 06:41:56;;;;;;;0.10;0.10;;;10.00;99.90;;;;;;5029556;28;20174;-84
2023/03/21 06:44:23;;;;;;;0.10;0.10;;;10.20;99.90;;;;;;5029567;28;20202;-83
2023/03/21 06:46:49;;;;;;;0.10;0.10;;;10.20;99.90;;;;;;5020992;28;20190;-83
2023/03/21 06:49:14;;;;;;;0.10;0.10;;;10.40;99.90;;;;;;5037921;28;20216;-83
2023/03/21 06:51:40;;;;;;;0.10;0.10;;;10.70;99.90;;;;;;5019666;28;20207;-83
2023/03/21 06:54:06;;;;;;;0.10;0.10;;;11.00;99.90;;;;;;5019484;28;20198;-83
2023/03/21 06:56:31;;;;;;;0.10;0.10;;;11.20;99.90;;;;;;5039042;28;20269;-83
2023/03/21 06:58:57;;;;;;;0.10;0.10;;;11.40;99.90;;;;;;5035924;28;20239;-83
2023/03/21 07:01:23;;;;;;;0.10;0.10;;;11.30;99.90;;;;;;5037305;28;20200;-84
2023/03/21 07:03:49;;;;;;;0.10;0.10;;;11.40;99.90;;;;;;5039048;28;20190;-89
2023/03/21 07:06:15;;;;;;;0.10;0.10;;;11.30;99.90;;;;;;5037343;28;20270;-85
2023/03/21 07:08:41;;;;;;;0.10;0.10;;;11.10;99.90;;;;;;5018587;28;20213;-84
2023/03/21 07:11:07;;;;;;;0.10;0.10;;;11.20;99.90;;;;;;5015239;28;20298;-85
2023/03/21 07:13:35;;;;;;;0.10;0.10;;;11.50;99.90;;;;;;5017608;28;20932;-84
2023/03/21 07:16:01;;;;;;;0.10;0.10;;;11.70;99.90;;;;;;5026010;28;20212;-85
2023/03/21 07:18:27;;;;;;;0.10;0.10;;;11.90;99.90;;;;;;5017524;28;20181;-85
2023/03/21 07:20:53;;;;;;;0.10;0.10;;;12.00;99.90;;;;;;5033728;28;20338;-84
2023/03/21 07:23:21;;;;;;;0.10;0.10;;;12.10;99.90;;;;;;5033306;28;20193;-85
2023/03/21 07:25:48;;;;;;;0.10;0.10;;;12.10;99.90;;;;;;5030250;28;20663;-87
2023/03/21 07:28:14;;;;;;;0.10;0.10;;;12.20;99.90;;;;;;5012770;28;20205;-85
2023/03/21 07:30:40;;;;;;;0.10;0.10;;;12.40;99.90;;;;;;5019634;28;20203;-86
2023/03/21 07:33:06;;;;;;;0.10;0.10;;;12.40;99.90;;;;;;5040262;28;20272;-86
2023/03/21 07:35:32;;;;;;;0.10;0.10;;;12.50;99.90;;;;;;5022105;28;20184;-86
2023/03/21 07:37:58;;;;;;;0.10;0.10;;;12.60;99.90;;;;;;5037864;28;20190;-86
2023/03/21 07:40:23;;;;;;;0.10;0.10;;;12.80;99.90;;;;;;5039481;28;20202;-87
2023/03/21 07:42:49;;;;;;;0.10;0.10;;;12.80;99.90;;;;;;5024276;28;20190;-86
2023/03/21 07:45:19;;;;;;;0.10;0.10;;;12.80;99.90;;;;;;5020326;28;20552;-86
2023/03/21 07:47:45;;;;;;;0.10;0.10;;;12.80;99.90;;;;;;5021631;28;20197;-86
2023/03/21 07:50:11;;;;;;;0.10;0.10;;;12.90;99.90;;;;;;5020009;28;20241;-87
2023/03/21 07:52:36;;;;;;;0.10;0.10;;;12.90;99.90;;;;;;5019762;28;20228;-85
2023/03/21 07:55:02;;;;;;;0.10;0.10;;;12.90;99.90;;;;;;5018834;28;20192;-85
2023/03/21 07:57:28;;;;;;;0.10;0.10;;;12.90;99.90;;;;;;5020242;28;20236;-86
2023/03/21 07:59:53;;;;;;;0.03;0.03;;;12.90;99.90;;;;;;5018408;28;20238;-84
2023/03/21 08:02:19;;;;;;;0.10;0.10;;;12.90;99.90;;;;;;5035932;28;20191;-85
2023/03/21 08:04:45;;;;;;;0.10;0.10;;;12.90;99.90;;;;;;5020226;28;20202;-84
2023/03/21 08:07:11;;;;;;;0.10;0.10;;;12.90;99.90;;;;;;5018796;28;20610;-85
2023/03/21 08:09:37;;;;;;;0.10;0.10;;;12.80;99.90;;;;;;5038276;28;20706;-85
2023/03/21 08:12:04;;;;;;;0.10;0.10;;;12.70;99.90;;;;;;5020578;28;20190;-85
2023/03/21 08:14:29;;;;;;;0.10;0.10;;;12.90;99.90;;;;;;5019697;28;20276;-85
2023/03/21 08:16:55;;;;;;;0.10;0.10;;;12.90;99.90;;;;;;5021071;28;20306;-86
2023/03/21 08:19:21;;;;;;;0.10;0.10;;;13.00;99.90;;;;;;5019488;28;20261;-86
2023/03/21 08:21:48;;;;;;;0.10;0.10;;;13.20;99.90;;;;;;5036179;28;20209;-86
2023/03/21 08:24:15;;;;;;;0.10;0.10;;;13.10;99.90;;;;;;5039691;28;20214;-85
2023/03/21 08:26:41;;;;;;;0.10;0.10;;;13.30;99.90;;;;;;5016758;28;20553;-86
2023/03/21 08:29:07;;;;;;;0.10;0.10;;;13.30;99.90;;;;;;5017878;28;20193;-83
2023/03/21 08:31:32;;;;;;;0.10;0.10;;;13.30;99.90;;;;;;5037007;28;20309;-83
2023/03/21 08:33:58;;;;;;;0.10;0.10;;;13.40;99.90;;;;;;5039869;28;20632;-84
2023/03/21 08:36:24;;;;;;;0.10;0.10;;;13.40;99.90;;;;;;5017698;28;20209;-83
2023/03/21 08:38:53;;;;;;;0.10;0.10;;;13.50;99.90;;;;;;5022091;28;20181;-83
2023/03/21 08:41:20;;;;;;;0.10;0.10;;;13.40;99.90;;;;;;5017432;28;20250;-83
2023/03/21 08:43:47;;;;;;;0.10;0.10;;;13.40;99.90;;;;;;5038911;28;20189;-83
2023/03/21 08:46:13;;;;;;;0.10;0.10;;;13.40;99.90;;;;;;5021254;28;20203;-83
2023/03/21 08:48:38;;;;;;;0.10;0.10;;;13.40;99.90;;;;;;5029931;28;20271;-83
2023/03/21 08:51:05;;;;;;;0.10;0.10;;;13.20;99.90;;;;;;5022820;28;20255;-83
2023/03/21 08:53:31;;;;;;;0.10;0.10;;;13.10;99.90;;;;;;5039660;28;20187;-82
2023/03/21 08:55:57;;;;;;;0.10;0.10;;;13.20;99.90;;;;;;5024982;28;20212;-83
2023/03/21 08:58:22;;;;;;;0.10;0.10;;;13.20;99.90;;;;;;5045026;28;20198;-84
2023/03/21 09:00:48;;;;;;;0.10;0.10;;;13.10;99.90;;;;;;5040758;28;20209;-84
2023/03/21 09:03:13;;;;;;;0.10;0.10;;;13.20;99.90;;;;;;5026450;28;20253;-84
2023/03/21 09:05:39;;;;;;;0.10;0.10;;;13.30;99.90;;;;;;5042653;28;20207;-83
2023/03/21 09:08:05;;;;;;;0.10;0.10;;;13.30;99.90;;;;;;5042355;28;20194;-83
2023/03/21 09:10:30;;;;;;;0.10;0.10;;;13.40;99.90;;;;;;5038905;28;20220;-83
2023/03/21 09:12:56;;;;;;;0.10;0.10;;;13.30;99.90;;;;;;5021744;28;20252;-83
2023/03/21 09:15:24;;;;;;;0.10;0.10;;;13.30;99.90;;;;;;5039595;28;21840;-84
2023/03/21 09:17:52;;;;;;;0.10;0.10;;;13.20;99.90;;;;;;5041687;28;20214;-84
2023/03/21 09:20:29;;;;;;;0.10;0.10;;;13.20;99.90;;;;;;5021517;28;20209;-83
2023/03/21 09:22:55;;;;;;;0.10;0.10;;;13.10;99.90;;;;;;5026289;28;21418;-84
2023/03/21 09:25:22;;;;;;;0.10;0.10;;;13.10;99.90;;;;;;5048525;28;20213;-83
2023/03/21 09:27:48;;;;;;;0.10;0.10;;;13.20;99.90;;;;;;5028306;28;20191;-84
2023/03/21 09:30:17;;;;;;;0.10;0.10;;;13.40;99.90;;;;;;5027917;28;20236;-83
2023/03/21 09:32:48;;;;;;;0.10;0.10;;;13.60;99.90;;;;;;5045011;28;20243;-83
2023/03/21 09:35:18;;;;;;;0.10;0.10;;;13.70;99.90;;;;;;5043657;28;20195;-84
2023/03/21 09:37:46;;;;;;;0.10;0.10;;;13.80;99.90;;;;;;5043010;28;20224;-83
2023/03/21 09:40:26;;;;;;;0.10;0.10;;;14.00;99.90;;;;;;5022888;28;20236;-83
2023/03/21 09:43:22;;;;;;;0.10;0.10;;;14.00;99.90;;;;;;5038887;28;20780;-82
2023/03/21 09:46:01;;;;;;;0.10;0.10;;;13.80;99.90;;;;;;5037513;28;20198;-82
2023/03/21 09:48:40;;;;;;;0.10;0.10;;;13.80;99.90;;;;;;5020372;28;20203;-82
2023/03/21 09:51:12;;;;;;;0.10;0.10;;;13.80;99.90;;;;;;5020529;28;20222;-82
2023/03/21 09:53:41;;;;;;;0.10;0.10;;;13.80;99.90;;;;;;5020939;28;20203;-83
2023/03/21 09:56:12;;;;;;;0.10;0.10;;;13.80;99.90;;;;;;5015091;28;20720;-86
2023/03/21 09:58:46;;;;;;;0.10;0.10;;;13.60;99.90;;;;;;5017549;28;20197;-85
2023/03/21 10:01:26;;;;;;;0.20;0.20;;;13.30;99.90;;;;;;5017179;28;20236;-86
2023/03/21 10:03:53;;;;;;;0.10;0.10;;;13.30;99.90;;;;;;5031079;28;20247;-86
2023/03/21 10:06:27;;;;;;;0.10;0.10;;;13.30;99.90;;;;;;5015129;28;20220;-85
2023/03/21 10:09:06;;;;;;;0.10;0.10;;;13.40;99.90;;;;;;5014648;28;20239;-85
2023/03/21 10:11:38;;;;;;;0.10;0.10;;;13.30;99.90;;;;;;5016157;28;20197;-86
2023/03/21 10:14:12;;;;;;;0.10;0.10;;;13.30;99.90;;;;;;5017817;28;20197;-85
2023/03/21 10:16:44;;;;;;;0.10;0.10;;;13.30;99.90;;;;;;5033877;28;20207;-85
2023/03/21 10:19:15;;;;;;;0.03;0.03;;;13.40;99.90;;;;;;5031670;28;20196;-85
2023/03/21 10:21:46;;;;;;;0.10;0.10;;;13.30;99.90;;;;;;5014343;28;20183;-85
2023/03/21 10:24:16;;;;;;;0.10;0.10;;;13.50;99.90;;;;;;5015277;28;20190;-86
2023/03/21 10:26:43;;;;;;;0.10;0.10;;;13.50;99.90;;;;;;5015942;28;20203;-85
2023/03/21 10:29:12;;;;;;;0.10;0.10;;;13.50;99.90;;;;;;5034781;28;20251;-86
2023/03/21 10:31:40;;;;;;;0.10;0.10;;;13.50;99.90;;;;;;5032013;28;20195;-86
2023/03/21 10:34:19;;;;;;;0.10;0.10;;;13.60;99.90;;;;;;5023007;28;20196;-86
2023/03/21 10:36:45;;;;;;;0.00;0.00;;;13.60;99.90;;;;;;5032686;28;20208;-85
2023/03/21 10:39:27;;;;;;;0.10;0.10;;;13.60;99.90;;;;;;5015729;28;20560;-86
2023/03/21 10:41:53;;;;;;;0.10;0.10;;;13.60;99.90;;;;;;5031990;28;20214;-85
2023/03/21 10:44:20;;;;;;;0.10;0.10;;;13.60;99.90;;;;;;5014536;28;20222;-86
2023/03/21 10:46:51;;;;;;;0.10;0.10;;;13.40;99.90;;;;;;5031715;28;20628;-86
2023/03/21 10:49:17;;;;;;;0.10;0.10;;;13.30;99.90;;;;;;5031854;28;20226;-85
2023/03/21 10:51:45;;;;;;;0.10;0.10;;;13.10;99.90;;;;;;5013909;28;20207;-86
2023/03/21 10:54:16;;;;;;;0.10;0.10;;;13.10;99.90;;;;;;5033235;28;20678;-85
2023/03/21 10:56:50;;;;;;;0.07;0.07;;;12.90;99.90;;;;;;5016116;28;20202;-85
2023/03/21 10:59:19;;;;;;;0.10;0.10;;;13.00;99.90;;;;;;5031003;28;20862;-86
2023/03/21 11:01:49;;;;;;;0.10;0.10;;;13.00;99.90;;;;;;5013584;28;20182;-85
2023/03/21 11:04:27;;;;;;;0.10;0.10;;;12.90;99.90;;;;;;5016507;28;20185;-85
2023/03/21 11:06:58;;;;;;;0.10;0.10;;;12.80;99.90;;;;;;5034974;28;20188;-86
2023/03/21 11:09:26;;;;;;;0.10;0.10;;;12.80;99.90;;;;;;5035168;28;20251;-85
2023/03/21 11:12:12;;;;;;;0.10;0.10;;;12.80;99.90;;;;;;5032300;28;20554;-85
2023/03/21 11:14:44;;;;;;;0.10;0.10;;;12.80;99.90;;;;;;5036292;28;20324;-86
2023/03/21 11:17:16;;;;;;;0.10;0.10;;;12.90;99.90;;;;;;5018323;28;20211;-85
2023/03/21 11:19:57;;;;;;;0.10;0.10;;;12.90;99.90;;;;;;5018409;28;20202;-84
2023/03/21 11:22:25;;;;;;;0.10;0.10;;;13.00;99.90;;;;;;5027706;28;20186;-85
2023/03/21 11:24:55;;;;;;;0.10;0.10;;;13.00;99.90;;;;;;5017302;28;20190;-86
2023/03/21 11:27:21;;;;;;;0.10;0.10;;;13.00;99.90;;;;;;5027139;28;20189;-85
2023/03/21 11:29:49;;;;;;;0.10;0.10;;;13.10;99.90;;;;;;5015415;28;20217;-85
2023/03/21 11:32:34;;;;;;;0.10;0.10;;;13.20;99.90;;;;;;5018444;28;20236;-86
2023/03/21 11:35:04;;;;;;;0.10;0.10;;;13.40;99.90;;;;;;5027869;28;20178;-85
2023/03/21 11:37:33;;;;;;;0.10;0.10;;;13.00;99.90;;;;;;5018732;28;20220;-86
2023/03/21 11:40:08;;;;;;;0.10;0.10;;;12.70;99.90;;;;;;5015428;28;20209;-85
2023/03/21 11:42:42;;;;;;;0.10;0.10;;;13.10;99.90;;;;;;5034113;28;20236;-85
2023/03/21 11:45:13;;;;;;;0.10;0.10;;;13.20;99.90;;;;;;5018636;28;20190;-85
2023/03/21 11:47:38;;;;;;;0.10;0.10;;;13.60;99.90;;;;;;5018375;28;20192;-85
2023/03/21 11:50:16;;;;;;;0.03;0.03;;;13.60;99.90;;;;;;5021174;28;20281;-86
2023/03/21 11:52:57;;;;;;;0.10;0.10;;;13.80;99.90;;;;;;5021161;28;20312;-86
2023/03/21 11:55:32;;;;;;;0.10;0.10;;;14.00;99.90;;;;;;5017391;28;20190;-85
2023/03/21 11:58:25;;;;;;;0.10;0.10;;;13.80;99.90;;;;;;5016918;28;20212;-86
2023/03/21 12:01:08;;;;;;;0.10;0.10;;;13.90;99.90;;;;;;5013586;28;20212;-85
2023/03/21 12:03:54;;;;;;;0.10;0.10;;;14.00;99.90;;;;;;5015488;28;20177;-86
2023/03/21 12:06:26;;;;;;;0.10;0.10;;;14.10;99.90;;;;;;5018139;28;21579;-86
2023/03/21 12:09:23;;;;;;;0.10;0.10;;;13.70;99.90;;;;;;5036267;28;20189;-86
2023/03/21 12:12:08;;;;;;;0.10;0.10;;;12.80;99.90;;;;;;5033752;28;20276;-86
2023/03/21 12:14:50;;;;;;;0.03;0.03;;;13.10;99.90;;;;;;5017665;28;20178;-86
2023/03/21 12:17:34;;;;;;;0.10;0.10;;;13.40;99.90;;;;;;5016928;28;20220;-85
2023/03/21 12:20:23;;;;;;;0.10;0.10;;;13.60;99.90;;;;;;5016458;28;20200;-86
2023/03/21 12:23:06;;;;;;;0.10;0.10;;;13.60;99.90;;;;;;5015873;28;20282;-85
2023/03/21 12:25:43;;;;;;;0.10;0.10;;;13.60;99.90;;;;;;5015051;28;20355;-85
2023/03/21 12:28:27;;;;;;;0.10;0.10;;;13.70;99.90;;;;;;5014469;28;20281;-86
2023/03/21 12:31:19;;;;;;;0.10;0.10;;;13.70;99.90;;;;;;5012411;28;20200;-83
2023/03/21 12:33:54;;;;;;;0.10;0.10;;;13.70;99.90;;;;;;5018506;28;20186;-83
2023/03/21 12:36:48;;;;;;;0.10;0.10;;;13.80;99.90;;;;;;5018685;28;20331;-82
2023/03/21 12:39:26;;;;;;;0.10;0.10;;;13.80;99.90;;;;;;5011792;28;20256;-82
2023/03/21 12:42:27;;;;;;;0.03;0.03;;;13.60;99.90;;;;;;5021883;28;20184;-83
2023/03/21 12:45:03;;;;;;;0.10;0.10;;;13.40;99.90;;;;;;5039130;28;20262;-83
2023/03/21 12:47:33;;;;;;;0.10;0.10;;;13.00;99.90;;;;;;5021054;28;20213;-83
2023/03/21 12:50:19;;;;;;;0.10;0.10;;;12.80;99.90;;;;;;5018922;28;20295;-83
2023/03/21 12:52:51;;;;;;;0.10;0.10;;;12.80;99.90;;;;;;5018153;28;20330;-82
2023/03/21 12:55:21;;;;;;;0.10;0.10;;;12.70;99.90;;;;;;5037026;28;20244;-83
2023/03/21 12:57:59;;;;;;;0.10;0.10;;;12.60;99.90;;;;;;5036285;28;20241;-83
2023/03/21 13:00:36;;;;;;;0.10;0.10;;;13.00;99.90;;;;;;5035304;28;20212;-83
2023/03/21 13:03:03;;;;;;;0.00;0.00;;;13.20;99.90;;;;;;5018087;28;20526;-83
2023/03/21 13:05:43;;;;;;;0.10;0.10;;;13.40;99.90;;;;;;5034299;28;20211;-83